Página principal
METAR-TAF:

METAR-TAF

Aeroportos :

Colmenar Viejo, Espanha

latitude: 40-39N, longitude: 003-44W, altura: -999 m

Observação actual do tempo

O boletim foi feito há 1 hora e 2 minutos, às 18:00 UTC
Vento 1 kt de este
Temperatura 6°C
Humidade 61%
Pressão 1029 hPa
Visibilidade 10 km ou mais
sem nuvens abaixo de 1500 metros e sem cumulonimbus

METAR: LECV 171800Z 08001KT CAVOK 06/M01 Q1029

Hora: 20:02 (19:02 UTC)

Previsão

O boletim foi feito há 2 horas e 2 minutos, às 17:00 UTC
Previsão válida de 17 às 18 UTC a 18 às 18 UTC
Vento 4 kt com direcção variável
Visibilidade 10 km ou mais
sem nuvens abaixo de 1500 metros e sem cumulonimbus

TAF: LECV 171700Z 1718/1818 VRB04KT CAVOK TX10/1815Z TNM00/1807Z

Observações e previsões do tempo de mais de 4000 aeroportos (mensagens METAR e TAF).

As estações disponíveis são os pontos amarelos e vermelhos sobre o mapa.

Mova o rato sobre o mapa para ver o nome da estação.

Depois clique no ponto para visualizar as observações e previsões meteorológicas.

Para alterar o mapa : clique nos botões verdes com uma cruz preta para aumentar o zoom; no botão verde com uma pitada de zoom; ou nas setas verdes para mapas adjacentes.


METAR-TAF: